sensor_id;sensor_type;location;lat;lon;timestamp;P1;durP1;ratioP1;P2;durP2;ratioP2
28427;SDS011;15662;49.128;8.520;2022-12-07T00:01:45;8.18;;;6.05;;
28427;SDS011;15662;49.128;8.520;2022-12-07T00:04:16;7.28;;;6.45;;
28427;SDS011;15662;49.128;8.520;2022-12-07T00:06:46;7.50;;;6.47;;
28427;SDS011;15662;49.128;8.520;2022-12-07T00:09:18;7.30;;;5.97;;
28427;SDS011;15662;49.128;8.520;2022-12-07T00:11:48;7.65;;;6.38;;
28427;SDS011;15662;49.128;8.520;2022-12-07T00:14:18;8.25;;;6.65;;
28427;SDS011;15662;49.128;8.520;2022-12-07T00:16:48;8.50;;;6.63;;
28427;SDS011;15662;49.128;8.520;2022-12-07T00:19:18;8.27;;;6.47;;
28427;SDS011;15662;49.128;8.520;2022-12-07T00:21:47;10.45;;;6.43;;
28427;SDS011;15662;49.128;8.520;2022-12-07T00:24:16;9.00;;;6.60;;
28427;SDS011;15662;49.128;8.520;2022-12-07T00:26:44;8.27;;;6.55;;
28427;SDS011;15662;49.128;8.520;2022-12-07T00:29:17;7.72;;;6.57;;
28427;SDS011;15662;49.128;8.520;2022-12-07T00:31:50;7.45;;;6.32;;
28427;SDS011;15662;49.128;8.520;2022-12-07T00:34:20;6.93;;;6.22;;
28427;SDS011;15662;49.128;8.520;2022-12-07T00:36:49;7.43;;;6.60;;
28427;SDS011;15662;49.128;8.520;2022-12-07T00:39:18;8.60;;;6.40;;
28427;SDS011;15662;49.128;8.520;2022-12-07T00:41:46;9.20;;;6.43;;
28427;SDS011;15662;49.128;8.520;2022-12-07T00:44:14;9.55;;;6.72;;
28427;SDS011;15662;49.128;8.520;2022-12-07T00:46:42;7.95;;;6.90;;
28427;SDS011;15662;49.128;8.520;2022-12-07T00:49:10;8.32;;;6.40;;
28427;SDS011;15662;49.128;8.520;2022-12-07T00:51:38;8.38;;;6.82;;
28427;SDS011;15662;49.128;8.520;2022-12-07T00:54:06;9.02;;;6.57;;
28427;SDS011;15662;49.128;8.520;2022-12-07T00:56:34;8.48;;;7.00;;
28427;SDS011;15662;49.128;8.520;2022-12-07T00:59:03;8.93;;;7.05;;
28427;SDS011;15662;49.128;8.520;2022-12-07T01:01:34;8.32;;;7.05;;
28427;SDS011;15662;49.128;8.520;2022-12-07T01:04:04;7.85;;;6.50;;
28427;SDS011;15662;49.128;8.520;2022-12-07T01:06:32;9.07;;;6.70;;
28427;SDS011;15662;49.128;8.520;2022-12-07T01:09:02;7.38;;;6.50;;
28427;SDS011;15662;49.128;8.520;2022-12-07T01:11:32;6.35;;;4.75;;
28427;SDS011;15662;49.128;8.520;2022-12-07T01:14:00;7.80;;;6.07;;
28427;SDS011;15662;49.128;8.520;2022-12-07T01:16:30;7.28;;;6.28;;
28427;SDS011;15662;49.128;8.520;2022-12-07T01:19:00;9.25;;;6.80;;
28427;SDS011;15662;49.128;8.520;2022-12-07T01:21:33;10.30;;;7.20;;
28427;SDS011;15662;49.128;8.520;2022-12-07T01:24:05;10.35;;;7.20;;
28427;SDS011;15662;49.128;8.520;2022-12-07T01:26:36;8.20;;;6.90;;
28427;SDS011;15662;49.128;8.520;2022-12-07T01:29:04;8.77;;;6.55;;
28427;SDS011;15662;49.128;8.520;2022-12-07T01:31:33;7.00;;;6.20;;
28427;SDS011;15662;49.128;8.520;2022-12-07T01:34:01;7.93;;;6.45;;
28427;SDS011;15662;49.128;8.520;2022-12-07T01:36:31;9.52;;;6.22;;
28427;SDS011;15662;49.128;8.520;2022-12-07T01:39:04;7.45;;;6.60;;
28427;SDS011;15662;49.128;8.520;2022-12-07T01:41:35;7.75;;;6.45;;
28427;SDS011;15662;49.128;8.520;2022-12-07T01:44:16;8.85;;;6.80;;
28427;SDS011;15662;49.128;8.520;2022-12-07T01:46:48;10.02;;;7.10;;
28427;SDS011;15662;49.128;8.520;2022-12-07T01:52:31;8.27;;;7.10;;
28427;SDS011;15662;49.128;8.520;2022-12-07T01:55:10;7.85;;;6.68;;
28427;SDS011;15662;49.128;8.520;2022-12-07T01:57:41;8.35;;;6.70;;
28427;SDS011;15662;49.128;8.520;2022-12-07T02:00:19;8.18;;;6.90;;
28427;SDS011;15662;49.128;8.520;2022-12-07T02:02:48;8.75;;;6.80;;
28427;SDS011;15662;49.128;8.520;2022-12-07T02:05:31;8.10;;;6.72;;
28427;SDS011;15662;49.128;8.520;2022-12-07T02:08:00;10.82;;;7.18;;
28427;SDS011;15662;49.128;8.520;2022-12-07T02:10:30;11.00;;;7.20;;
28427;SDS011;15662;49.128;8.520;2022-12-07T02:21:44;8.57;;;6.78;;
28427;SDS011;15662;49.128;8.520;2022-12-07T02:28:07;7.72;;;6.82;;
28427;SDS011;15662;49.128;8.520;2022-12-07T02:30:54;8.35;;;7.00;;
28427;SDS011;15662;49.128;8.520;2022-12-07T02:33:30;8.60;;;7.15;;
28427;SDS011;15662;49.128;8.520;2022-12-07T02:36:28;9.05;;;6.95;;
28427;SDS011;15662;49.128;8.520;2022-12-07T02:39:07;9.43;;;7.35;;
28427;SDS011;15662;49.128;8.520;2022-12-07T02:41:47;9.13;;;7.18;;
28427;SDS011;15662;49.128;8.520;2022-12-07T02:44:23;9.43;;;7.35;;
28427;SDS011;15662;49.128;8.520;2022-12-07T02:46:58;9.00;;;7.50;;
28427;SDS011;15662;49.128;8.520;2022-12-07T02:49:34;9.80;;;7.57;;
28427;SDS011;15662;49.128;8.520;2022-12-07T02:52:08;9.18;;;7.28;;
28427;SDS011;15662;49.128;8.520;2022-12-07T02:54:37;10.48;;;8.18;;
28427;SDS011;15662;49.128;8.520;2022-12-07T03:00:03;9.13;;;7.60;;
28427;SDS011;15662;49.128;8.520;2022-12-07T03:05:39;8.93;;;7.40;;
28427;SDS011;15662;49.128;8.520;2022-12-07T03:14:13;11.70;;;8.38;;
28427;SDS011;15662;49.128;8.520;2022-12-07T03:16:59;10.38;;;8.30;;
28427;SDS011;15662;49.128;8.520;2022-12-07T03:19:32;10.32;;;8.15;;
28427;SDS011;15662;49.128;8.520;2022-12-07T03:22:03;11.48;;;8.32;;
28427;SDS011;15662;49.128;8.520;2022-12-07T03:24:39;11.02;;;8.18;;
28427;SDS011;15662;49.128;8.520;2022-12-07T03:27:20;10.98;;;7.88;;
28427;SDS011;15662;49.128;8.520;2022-12-07T03:29:55;10.75;;;8.65;;
28427;SDS011;15662;49.128;8.520;2022-12-07T03:32:40;11.27;;;8.20;;
28427;SDS011;15662;49.128;8.520;2022-12-07T03:37:49;12.20;;;8.60;;
28427;SDS011;15662;49.128;8.520;2022-12-07T03:40:29;11.52;;;8.38;;
28427;SDS011;15662;49.128;8.520;2022-12-07T03:48:35;9.52;;;7.78;;
28427;SDS011;15662;49.128;8.520;2022-12-07T03:51:18;9.98;;;7.85;;
28427;SDS011;15662;49.128;8.520;2022-12-07T03:54:05;11.05;;;8.45;;
28427;SDS011;15662;49.128;8.520;2022-12-07T03:56:39;10.25;;;8.30;;
28427;SDS011;15662;49.128;8.520;2022-12-07T03:59:11;9.70;;;7.72;;
28427;SDS011;15662;49.128;8.520;2022-12-07T04:01:44;11.20;;;8.50;;
28427;SDS011;15662;49.128;8.520;2022-12-07T04:04:18;11.32;;;8.50;;
28427;SDS011;15662;49.128;8.520;2022-12-07T04:06:46;10.18;;;8.07;;
28427;SDS011;15662;49.128;8.520;2022-12-07T04:09:14;10.90;;;7.55;;
28427;SDS011;15662;49.128;8.520;2022-12-07T04:11:43;11.55;;;8.55;;
28427;SDS011;15662;49.128;8.520;2022-12-07T04:14:12;11.00;;;8.73;;
28427;SDS011;15662;49.128;8.520;2022-12-07T04:16:56;9.95;;;8.20;;
28427;SDS011;15662;49.128;8.520;2022-12-07T04:19:30;10.63;;;8.35;;
28427;SDS011;15662;49.128;8.520;2022-12-07T04:22:03;10.85;;;7.97;;
28427;SDS011;15662;49.128;8.520;2022-12-07T04:24:32;11.25;;;8.13;;
28427;SDS011;15662;49.128;8.520;2022-12-07T04:27:01;10.05;;;8.40;;
28427;SDS011;15662;49.128;8.520;2022-12-07T04:29:30;10.90;;;8.25;;
28427;SDS011;15662;49.128;8.520;2022-12-07T04:31:58;10.73;;;7.85;;
28427;SDS011;15662;49.128;8.520;2022-12-07T04:34:27;10.15;;;8.38;;
28427;SDS011;15662;49.128;8.520;2022-12-07T04:37:15;10.60;;;8.05;;
28427;SDS011;15662;49.128;8.520;2022-12-07T04:39:44;9.90;;;8.02;;
28427;SDS011;15662;49.128;8.520;2022-12-07T04:42:14;9.70;;;8.13;;
28427;SDS011;15662;49.128;8.520;2022-12-07T04:44:42;9.93;;;7.85;;
28427;SDS011;15662;49.128;8.520;2022-12-07T04:47:11;11.93;;;9.05;;
28427;SDS011;15662;49.128;8.520;2022-12-07T04:49:41;10.98;;;8.50;;
28427;SDS011;15662;49.128;8.520;2022-12-07T04:52:09;12.13;;;9.10;;
28427;SDS011;15662;49.128;8.520;2022-12-07T04:54:37;11.68;;;8.88;;
28427;SDS011;15662;49.128;8.520;2022-12-07T04:57:06;11.07;;;8.93;;
28427;SDS011;15662;49.128;8.520;2022-12-07T04:59:35;12.82;;;8.95;;
28427;SDS011;15662;49.128;8.520;2022-12-07T05:02:11;11.80;;;8.80;;
28427;SDS011;15662;49.128;8.520;2022-12-07T05:04:40;11.23;;;9.15;;
28427;SDS011;15662;49.128;8.520;2022-12-07T05:07:09;11.80;;;9.40;;
28427;SDS011;15662;49.128;8.520;2022-12-07T05:09:37;13.40;;;8.90;;
28427;SDS011;15662;49.128;8.520;2022-12-07T05:12:05;13.27;;;8.65;;
28427;SDS011;15662;49.128;8.520;2022-12-07T05:14:33;11.48;;;9.10;;
28427;SDS011;15662;49.128;8.520;2022-12-07T05:17:02;11.82;;;8.65;;
28427;SDS011;15662;49.128;8.520;2022-12-07T05:19:31;12.63;;;9.43;;
28427;SDS011;15662;49.128;8.520;2022-12-07T05:21:59;11.25;;;8.70;;
28427;SDS011;15662;49.128;8.520;2022-12-07T05:24:31;10.57;;;8.57;;
28427;SDS011;15662;49.128;8.520;2022-12-07T05:26:59;8.50;;;6.68;;
28427;SDS011;15662;49.128;8.520;2022-12-07T05:29:27;12.02;;;8.98;;
28427;SDS011;15662;49.128;8.520;2022-12-07T05:31:55;10.32;;;8.55;;
28427;SDS011;15662;49.128;8.520;2022-12-07T05:34:25;10.85;;;9.00;;
28427;SDS011;15662;49.128;8.520;2022-12-07T05:36:53;12.05;;;9.13;;
28427;SDS011;15662;49.128;8.520;2022-12-07T05:39:21;11.02;;;8.98;;
28427;SDS011;15662;49.128;8.520;2022-12-07T05:41:49;9.55;;;8.25;;
28427;SDS011;15662;49.128;8.520;2022-12-07T05:44:41;10.70;;;8.63;;
28427;SDS011;15662;49.128;8.520;2022-12-07T05:47:14;11.98;;;8.88;;
28427;SDS011;15662;49.128;8.520;2022-12-07T05:49:44;12.43;;;9.63;;
28427;SDS011;15662;49.128;8.520;2022-12-07T05:52:12;11.55;;;9.18;;
28427;SDS011;15662;49.128;8.520;2022-12-07T05:54:41;12.80;;;9.02;;
28427;SDS011;15662;49.128;8.520;2022-12-07T05:57:10;12.85;;;9.73;;
28427;SDS011;15662;49.128;8.520;2022-12-07T05:59:41;12.93;;;9.73;;
28427;SDS011;15662;49.128;8.520;2022-12-07T06:02:11;12.65;;;8.88;;
28427;SDS011;15662;49.128;8.520;2022-12-07T06:04:41;12.90;;;9.68;;
28427;SDS011;15662;49.128;8.520;2022-12-07T06:07:13;12.10;;;9.07;;
28427;SDS011;15662;49.128;8.520;2022-12-07T06:09:43;12.27;;;9.82;;
28427;SDS011;15662;49.128;8.520;2022-12-07T06:12:12;13.35;;;9.77;;
28427;SDS011;15662;49.128;8.520;2022-12-07T06:14:59;12.63;;;9.55;;
28427;SDS011;15662;49.128;8.520;2022-12-07T06:17:27;13.25;;;10.43;;
28427;SDS011;15662;49.128;8.520;2022-12-07T06:19:57;11.75;;;9.50;;
28427;SDS011;15662;49.128;8.520;2022-12-07T06:22:26;11.52;;;8.95;;
28427;SDS011;15662;49.128;8.520;2022-12-07T06:24:55;12.73;;;9.30;;
28427;SDS011;15662;49.128;8.520;2022-12-07T06:27:23;13.38;;;10.10;;
28427;SDS011;15662;49.128;8.520;2022-12-07T06:29:51;11.85;;;9.68;;
28427;SDS011;15662;49.128;8.520;2022-12-07T06:32:19;14.20;;;9.77;;
28427;SDS011;15662;49.128;8.520;2022-12-07T06:34:47;10.65;;;8.82;;
28427;SDS011;15662;49.128;8.520;2022-12-07T06:37:15;12.40;;;9.85;;
28427;SDS011;15662;49.128;8.520;2022-12-07T06:39:46;13.68;;;9.90;;
28427;SDS011;15662;49.128;8.520;2022-12-07T06:42:14;13.52;;;10.05;;
28427;SDS011;15662;49.128;8.520;2022-12-07T06:44:42;11.32;;;8.77;;
28427;SDS011;15662;49.128;8.520;2022-12-07T06:47:11;13.95;;;9.32;;
28427;SDS011;15662;49.128;8.520;2022-12-07T06:49:59;11.35;;;9.07;;
28427;SDS011;15662;49.128;8.520;2022-12-07T06:52:28;12.57;;;9.25;;
28427;SDS011;15662;49.128;8.520;2022-12-07T06:54:58;11.85;;;9.32;;
28427;SDS011;15662;49.128;8.520;2022-12-07T06:57:26;13.68;;;9.52;;
28427;SDS011;15662;49.128;8.520;2022-12-07T06:59:54;13.02;;;9.65;;
28427;SDS011;15662;49.128;8.520;2022-12-07T07:02:23;13.52;;;9.27;;
28427;SDS011;15662;49.128;8.520;2022-12-07T07:04:52;13.50;;;9.48;;
28427;SDS011;15662;49.128;8.520;2022-12-07T07:07:22;11.20;;;9.00;;
28427;SDS011;15662;49.128;8.520;2022-12-07T07:09:50;14.02;;;9.68;;
28427;SDS011;15662;49.128;8.520;2022-12-07T07:12:18;14.25;;;10.20;;
28427;SDS011;15662;49.128;8.520;2022-12-07T07:14:46;12.07;;;9.73;;
28427;SDS011;15662;49.128;8.520;2022-12-07T07:17:15;11.60;;;9.15;;
28427;SDS011;15662;49.128;8.520;2022-12-07T07:19:43;12.73;;;9.95;;
28427;SDS011;15662;49.128;8.520;2022-12-07T07:22:12;12.43;;;9.15;;
28427;SDS011;15662;49.128;8.520;2022-12-07T07:24:41;13.20;;;9.38;;
28427;SDS011;15662;49.128;8.520;2022-12-07T07:27:09;13.45;;;9.80;;
28427;SDS011;15662;49.128;8.520;2022-12-07T07:29:37;14.48;;;10.38;;
28427;SDS011;15662;49.128;8.520;2022-12-07T07:32:05;13.45;;;10.05;;
28427;SDS011;15662;49.128;8.520;2022-12-07T07:34:35;11.45;;;9.20;;
28427;SDS011;15662;49.128;8.520;2022-12-07T07:37:03;11.77;;;9.18;;
28427;SDS011;15662;49.128;8.520;2022-12-07T07:39:31;11.98;;;9.05;;
28427;SDS011;15662;49.128;8.520;2022-12-07T07:41:59;12.13;;;9.18;;
28427;SDS011;15662;49.128;8.520;2022-12-07T07:44:32;11.75;;;9.10;;
28427;SDS011;15662;49.128;8.520;2022-12-07T07:47:01;11.63;;;8.88;;
28427;SDS011;15662;49.128;8.520;2022-12-07T07:49:30;12.30;;;9.43;;
28427;SDS011;15662;49.128;8.520;2022-12-07T07:51:58;11.90;;;8.80;;
28427;SDS011;15662;49.128;8.520;2022-12-07T07:54:26;11.52;;;9.48;;
28427;SDS011;15662;49.128;8.520;2022-12-07T07:56:55;10.68;;;8.77;;
28427;SDS011;15662;49.128;8.520;2022-12-07T07:59:23;12.50;;;9.30;;
28427;SDS011;15662;49.128;8.520;2022-12-07T08:01:53;12.63;;;8.65;;
28427;SDS011;15662;49.128;8.520;2022-12-07T08:04:22;12.00;;;8.73;;
28427;SDS011;15662;49.128;8.520;2022-12-07T08:06:51;11.52;;;9.07;;
28427;SDS011;15662;49.128;8.520;2022-12-07T08:09:20;11.60;;;8.57;;
28427;SDS011;15662;49.128;8.520;2022-12-07T08:11:48;11.00;;;8.73;;
28427;SDS011;15662;49.128;8.520;2022-12-07T08:14:16;10.63;;;8.57;;
28427;SDS011;15662;49.128;8.520;2022-12-07T08:16:44;12.82;;;8.90;;
28427;SDS011;15662;49.128;8.520;2022-12-07T08:19:12;11.05;;;8.50;;
28427;SDS011;15662;49.128;8.520;2022-12-07T08:21:42;11.25;;;8.45;;
28427;SDS011;15662;49.128;8.520;2022-12-07T08:24:10;9.65;;;8.25;;
28427;SDS011;15662;49.128;8.520;2022-12-07T08:26:38;9.88;;;8.48;;
28427;SDS011;15662;49.128;8.520;2022-12-07T08:29:06;13.27;;;8.75;;
28427;SDS011;15662;49.128;8.520;2022-12-07T08:31:34;10.75;;;8.32;;
28427;SDS011;15662;49.128;8.520;2022-12-07T08:34:03;10.55;;;8.60;;
28427;SDS011;15662;49.128;8.520;2022-12-07T08:36:35;10.00;;;8.30;;
28427;SDS011;15662;49.128;8.520;2022-12-07T08:39:04;11.32;;;8.32;;
28427;SDS011;15662;49.128;8.520;2022-12-07T08:41:53;13.10;;;8.48;;
28427;SDS011;15662;49.128;8.520;2022-12-07T08:44:22;11.63;;;8.85;;
28427;SDS011;15662;49.128;8.520;2022-12-07T08:46:53;11.00;;;8.52;;
28427;SDS011;15662;49.128;8.520;2022-12-07T08:49:27;11.00;;;9.02;;
28427;SDS011;15662;49.128;8.520;2022-12-07T08:52:00;12.40;;;9.05;;
28427;SDS011;15662;49.128;8.520;2022-12-07T08:54:31;12.38;;;8.77;;
28427;SDS011;15662;49.128;8.520;2022-12-07T08:57:04;10.75;;;8.73;;
28427;SDS011;15662;49.128;8.520;2022-12-07T08:59:33;17.13;;;9.10;;
28427;SDS011;15662;49.128;8.520;2022-12-07T09:02:03;10.35;;;8.93;;
28427;SDS011;15662;49.128;8.520;2022-12-07T09:04:33;11.10;;;8.38;;
28427;SDS011;15662;49.128;8.520;2022-12-07T09:07:02;11.88;;;8.88;;
28427;SDS011;15662;49.128;8.520;2022-12-07T09:09:31;11.90;;;8.60;;
28427;SDS011;15662;49.128;8.520;2022-12-07T09:12:00;10.20;;;8.25;;
28427;SDS011;15662;49.128;8.520;2022-12-07T09:14:29;10.20;;;8.13;;
28427;SDS011;15662;49.128;8.520;2022-12-07T09:17:08;10.48;;;8.27;;
28427;SDS011;15662;49.128;8.520;2022-12-07T09:19:38;11.27;;;7.65;;
28427;SDS011;15662;49.128;8.520;2022-12-07T09:22:08;10.30;;;8.25;;
28427;SDS011;15662;49.128;8.520;2022-12-07T09:24:36;10.40;;;8.40;;
28427;SDS011;15662;49.128;8.520;2022-12-07T09:27:04;9.52;;;7.93;;
28427;SDS011;15662;49.128;8.520;2022-12-07T09:29:32;9.75;;;7.43;;
28427;SDS011;15662;49.128;8.520;2022-12-07T09:32:02;10.18;;;7.88;;
28427;SDS011;15662;49.128;8.520;2022-12-07T09:34:37;9.48;;;7.57;;
28427;SDS011;15662;49.128;8.520;2022-12-07T09:37:06;9.52;;;7.50;;
28427;SDS011;15662;49.128;8.520;2022-12-07T09:39:38;10.02;;;7.97;;
28427;SDS011;15662;49.128;8.520;2022-12-07T09:42:36;8.98;;;7.40;;
28427;SDS011;15662;49.128;8.520;2022-12-07T09:45:12;9.52;;;7.70;;
28427;SDS011;15662;49.128;8.520;2022-12-07T09:48:18;11.07;;;7.63;;
28427;SDS011;15662;49.128;8.520;2022-12-07T09:50:49;8.85;;;7.35;;
28427;SDS011;15662;49.128;8.520;2022-12-07T09:53:24;9.70;;;7.72;;
28427;SDS011;15662;49.128;8.520;2022-12-07T09:56:00;10.93;;;8.02;;
28427;SDS011;15662;49.128;8.520;2022-12-07T09:58:29;10.00;;;8.00;;
28427;SDS011;15662;49.128;8.520;2022-12-07T10:01:08;10.73;;;7.45;;
28427;SDS011;15662;49.128;8.520;2022-12-07T10:03:48;8.90;;;7.75;;
28427;SDS011;15662;49.128;8.520;2022-12-07T10:06:41;9.05;;;7.70;;
28427;SDS011;15662;49.128;8.520;2022-12-07T10:09:12;8.73;;;7.35;;
28427;SDS011;15662;49.128;8.520;2022-12-07T10:14:39;9.63;;;7.40;;
28427;SDS011;15662;49.128;8.520;2022-12-07T10:17:48;9.32;;;7.63;;
28427;SDS011;15662;49.128;8.520;2022-12-07T10:20:24;9.27;;;7.22;;
28427;SDS011;15662;49.128;8.520;2022-12-07T10:22:58;11.77;;;7.68;;
28427;SDS011;15662;49.128;8.520;2022-12-07T10:25:36;9.65;;;7.20;;
28427;SDS011;15662;49.128;8.520;2022-12-07T10:28:16;9.88;;;7.25;;
28427;SDS011;15662;49.128;8.520;2022-12-07T10:33:28;10.35;;;7.47;;
28427;SDS011;15662;49.128;8.520;2022-12-07T10:36:38;9.93;;;7.72;;
28427;SDS011;15662;49.128;8.520;2022-12-07T10:39:14;9.77;;;7.78;;
28427;SDS011;15662;49.128;8.520;2022-12-07T10:41:52;10.60;;;8.10;;
28427;SDS011;15662;49.128;8.520;2022-12-07T10:44:39;8.45;;;7.38;;
28427;SDS011;15662;49.128;8.520;2022-12-07T10:59:40;8.95;;;7.05;;
28427;SDS011;15662;49.128;8.520;2022-12-07T11:18:21;11.80;;;7.85;;
28427;SDS011;15662;49.128;8.520;2022-12-07T11:27:43;9.35;;;7.35;;
28427;SDS011;15662;49.128;8.520;2022-12-07T11:30:35;9.80;;;7.72;;
28427;SDS011;15662;49.128;8.520;2022-12-07T11:39:14;11.63;;;7.65;;
28427;SDS011;15662;49.128;8.520;2022-12-07T11:41:49;9.50;;;8.07;;
28427;SDS011;15662;49.128;8.520;2022-12-07T11:44:53;10.25;;;7.78;;
28427;SDS011;15662;49.128;8.520;2022-12-07T11:47:40;10.43;;;8.00;;
28427;SDS011;15662;49.128;8.520;2022-12-07T11:56:21;11.00;;;7.93;;
28427;SDS011;15662;49.128;8.520;2022-12-07T11:59:00;9.98;;;7.90;;
28427;SDS011;15662;49.128;8.520;2022-12-07T12:04:49;9.60;;;7.95;;
28427;SDS011;15662;49.128;8.520;2022-12-07T12:11:18;10.38;;;7.28;;
28427;SDS011;15662;49.128;8.520;2022-12-07T12:14:22;9.52;;;7.82;;
28427;SDS011;15662;49.128;8.520;2022-12-07T12:20:32;11.07;;;8.48;;
28427;SDS011;15662;49.128;8.520;2022-12-07T12:26:05;10.27;;;7.70;;
28427;SDS011;15662;49.128;8.520;2022-12-07T12:28:41;12.10;;;8.50;;
28427;SDS011;15662;49.128;8.520;2022-12-07T12:31:39;12.23;;;7.97;;
28427;SDS011;15662;49.128;8.520;2022-12-07T12:34:30;10.13;;;7.70;;
28427;SDS011;15662;49.128;8.520;2022-12-07T12:47:59;10.82;;;7.50;;
28427;SDS011;15662;49.128;8.520;2022-12-07T13:04:54;8.55;;;6.95;;
28427;SDS011;15662;49.128;8.520;2022-12-07T13:26:18;12.77;;;8.93;;
28427;SDS011;15662;49.128;8.520;2022-12-07T13:42:46;11.52;;;7.07;;
28427;SDS011;15662;49.128;8.520;2022-12-07T13:45:25;9.68;;;7.10;;
28427;SDS011;15662;49.128;8.520;2022-12-07T13:54:09;10.13;;;7.30;;
28427;SDS011;15662;49.128;8.520;2022-12-07T13:56:40;10.98;;;8.40;;
28427;SDS011;15662;49.128;8.520;2022-12-07T13:59:43;11.45;;;8.63;;
28427;SDS011;15662;49.128;8.520;2022-12-07T14:08:03;9.23;;;7.40;;
28427;SDS011;15662;49.128;8.520;2022-12-07T14:10:53;10.43;;;7.78;;
28427;SDS011;15662;49.128;8.520;2022-12-07T14:13:32;13.68;;;7.30;;
28427;SDS011;15662;49.128;8.520;2022-12-07T14:19:04;9.95;;;7.32;;
28427;SDS011;15662;49.128;8.520;2022-12-07T14:22:15;11.63;;;7.65;;
28427;SDS011;15662;49.128;8.520;2022-12-07T14:24:58;8.75;;;7.07;;
28427;SDS011;15662;49.128;8.520;2022-12-07T14:30:29;10.65;;;6.93;;
28427;SDS011;15662;49.128;8.520;2022-12-07T14:33:00;9.68;;;6.90;;
28427;SDS011;15662;49.128;8.520;2022-12-07T14:35:33;12.35;;;7.80;;
28427;SDS011;15662;49.128;8.520;2022-12-07T14:38:04;11.30;;;7.45;;
28427;SDS011;15662;49.128;8.520;2022-12-07T14:40:32;10.73;;;7.68;;
28427;SDS011;15662;49.128;8.520;2022-12-07T14:43:01;8.60;;;7.25;;
28427;SDS011;15662;49.128;8.520;2022-12-07T14:45:32;13.35;;;8.23;;
28427;SDS011;15662;49.128;8.520;2022-12-07T14:48:01;13.77;;;8.35;;
28427;SDS011;15662;49.128;8.520;2022-12-07T14:50:51;8.98;;;7.00;;
28427;SDS011;15662;49.128;8.520;2022-12-07T14:53:42;10.25;;;8.18;;
28427;SDS011;15662;49.128;8.520;2022-12-07T14:56:23;13.00;;;7.80;;
28427;SDS011;15662;49.128;8.520;2022-12-07T14:58:52;10.38;;;7.60;;
28427;SDS011;15662;49.128;8.520;2022-12-07T15:01:21;9.57;;;7.22;;
28427;SDS011;15662;49.128;8.520;2022-12-07T15:03:51;8.80;;;6.60;;
28427;SDS011;15662;49.128;8.520;2022-12-07T15:06:19;9.50;;;7.40;;
28427;SDS011;15662;49.128;8.520;2022-12-07T15:08:47;14.32;;;8.23;;
28427;SDS011;15662;49.128;8.520;2022-12-07T15:11:16;13.55;;;9.07;;
28427;SDS011;15662;49.128;8.520;2022-12-07T15:13:45;11.45;;;8.32;;
28427;SDS011;15662;49.128;8.520;2022-12-07T15:16:31;10.60;;;7.22;;
28427;SDS011;15662;49.128;8.520;2022-12-07T15:19:20;10.32;;;7.25;;
28427;SDS011;15662;49.128;8.520;2022-12-07T15:21:56;10.75;;;7.80;;
28427;SDS011;15662;49.128;8.520;2022-12-07T15:24:26;9.23;;;7.45;;
28427;SDS011;15662;49.128;8.520;2022-12-07T15:26:55;10.35;;;7.45;;
28427;SDS011;15662;49.128;8.520;2022-12-07T15:29:24;8.85;;;6.97;;
28427;SDS011;15662;49.128;8.520;2022-12-07T15:31:52;10.55;;;7.30;;
28427;SDS011;15662;49.128;8.520;2022-12-07T15:34:27;8.80;;;7.65;;
28427;SDS011;15662;49.128;8.520;2022-12-07T15:37:06;8.45;;;7.32;;
28427;SDS011;15662;49.128;8.520;2022-12-07T15:39:35;10.13;;;7.38;;
28427;SDS011;15662;49.128;8.520;2022-12-07T15:42:04;9.45;;;7.25;;
28427;SDS011;15662;49.128;8.520;2022-12-07T15:44:32;8.13;;;6.90;;
28427;SDS011;15662;49.128;8.520;2022-12-07T15:47:18;10.00;;;6.93;;
28427;SDS011;15662;49.128;8.520;2022-12-07T15:49:47;10.88;;;7.88;;
28427;SDS011;15662;49.128;8.520;2022-12-07T15:52:15;10.63;;;7.15;;
28427;SDS011;15662;49.128;8.520;2022-12-07T15:54:44;8.77;;;7.22;;
28427;SDS011;15662;49.128;8.520;2022-12-07T15:57:13;11.82;;;8.05;;
28427;SDS011;15662;49.128;8.520;2022-12-07T15:59:48;10.48;;;7.70;;
28427;SDS011;15662;49.128;8.520;2022-12-07T16:02:16;10.70;;;7.85;;
28427;SDS011;15662;49.128;8.520;2022-12-07T16:04:44;10.85;;;7.82;;
28427;SDS011;15662;49.128;8.520;2022-12-07T16:07:13;9.63;;;7.35;;
28427;SDS011;15662;49.128;8.520;2022-12-07T16:09:43;9.75;;;7.90;;
28427;SDS011;15662;49.128;8.520;2022-12-07T16:12:13;9.95;;;7.80;;
28427;SDS011;15662;49.128;8.520;2022-12-07T16:14:41;11.30;;;8.25;;
28427;SDS011;15662;49.128;8.520;2022-12-07T16:17:10;11.07;;;8.45;;
28427;SDS011;15662;49.128;8.520;2022-12-07T16:19:38;10.38;;;8.00;;
28427;SDS011;15662;49.128;8.520;2022-12-07T16:22:07;9.93;;;7.70;;
28427;SDS011;15662;49.128;8.520;2022-12-07T16:24:35;9.75;;;7.78;;
28427;SDS011;15662;49.128;8.520;2022-12-07T16:27:06;9.35;;;7.97;;
28427;SDS011;15662;49.128;8.520;2022-12-07T16:29:36;14.80;;;8.20;;
28427;SDS011;15662;49.128;8.520;2022-12-07T16:32:04;10.60;;;8.18;;
28427;SDS011;15662;49.128;8.520;2022-12-07T16:34:33;10.50;;;8.10;;
28427;SDS011;15662;49.128;8.520;2022-12-07T16:37:02;10.50;;;8.40;;
28427;SDS011;15662;49.128;8.520;2022-12-07T16:39:32;10.45;;;8.07;;
28427;SDS011;15662;49.128;8.520;2022-12-07T16:42:01;10.95;;;8.23;;
28427;SDS011;15662;49.128;8.520;2022-12-07T16:44:33;9.77;;;7.78;;
28427;SDS011;15662;49.128;8.520;2022-12-07T16:47:01;10.52;;;8.02;;
28427;SDS011;15662;49.128;8.520;2022-12-07T16:49:30;11.35;;;7.97;;
28427;SDS011;15662;49.128;8.520;2022-12-07T16:51:58;14.20;;;8.20;;
28427;SDS011;15662;49.128;8.520;2022-12-07T16:54:46;10.98;;;8.25;;
28427;SDS011;15662;49.128;8.520;2022-12-07T16:57:16;10.20;;;8.25;;
28427;SDS011;15662;49.128;8.520;2022-12-07T16:59:50;12.80;;;8.98;;
28427;SDS011;15662;49.128;8.520;2022-12-07T17:02:20;14.70;;;9.25;;
28427;SDS011;15662;49.128;8.520;2022-12-07T17:04:51;8.80;;;6.53;;
28427;SDS011;15662;49.128;8.520;2022-12-07T17:07:20;11.73;;;8.57;;
28427;SDS011;15662;49.128;8.520;2022-12-07T17:09:48;11.27;;;8.18;;
28427;SDS011;15662;49.128;8.520;2022-12-07T17:12:17;12.07;;;8.98;;
28427;SDS011;15662;49.128;8.520;2022-12-07T17:14:47;10.45;;;8.38;;
28427;SDS011;15662;49.128;8.520;2022-12-07T17:17:58;12.60;;;8.95;;
28427;SDS011;15662;49.128;8.520;2022-12-07T17:20:26;12.50;;;9.18;;
28427;SDS011;15662;49.128;8.520;2022-12-07T17:22:56;12.73;;;9.45;;
28427;SDS011;15662;49.128;8.520;2022-12-07T17:25:26;11.93;;;9.23;;
28427;SDS011;15662;49.128;8.520;2022-12-07T17:27:56;13.20;;;9.43;;
28427;SDS011;15662;49.128;8.520;2022-12-07T17:30:24;13.48;;;9.07;;
28427;SDS011;15662;49.128;8.520;2022-12-07T17:32:52;14.70;;;10.13;;
28427;SDS011;15662;49.128;8.520;2022-12-07T17:35:22;13.25;;;9.57;;
28427;SDS011;15662;49.128;8.520;2022-12-07T17:37:53;12.25;;;9.30;;
28427;SDS011;15662;49.128;8.520;2022-12-07T17:40:23;12.45;;;8.80;;
28427;SDS011;15662;49.128;8.520;2022-12-07T17:42:51;13.77;;;9.70;;
28427;SDS011;15662;49.128;8.520;2022-12-07T17:45:20;15.10;;;10.57;;
28427;SDS011;15662;49.128;8.520;2022-12-07T17:47:48;13.98;;;9.93;;
28427;SDS011;15662;49.128;8.520;2022-12-07T17:50:17;17.52;;;10.07;;
28427;SDS011;15662;49.128;8.520;2022-12-07T17:53:05;13.40;;;9.38;;
28427;SDS011;15662;49.128;8.520;2022-12-07T17:55:37;14.27;;;10.20;;
28427;SDS011;15662;49.128;8.520;2022-12-07T17:58:27;15.45;;;9.98;;
28427;SDS011;15662;49.128;8.520;2022-12-07T18:00:55;16.55;;;10.77;;
28427;SDS011;15662;49.128;8.520;2022-12-07T18:03:24;15.35;;;10.45;;
28427;SDS011;15662;49.128;8.520;2022-12-07T18:05:52;15.65;;;10.65;;
28427;SDS011;15662;49.128;8.520;2022-12-07T18:08:21;13.85;;;10.13;;
28427;SDS011;15662;49.128;8.520;2022-12-07T18:10:56;15.73;;;9.57;;